Alabaster, Alabama
Current Conditions -  °F | °C
As of 11:53 PM on Wednesday 28 Jan 2015 (Local Time) from KEET Reporting Station
Clear Clear  
Wind Chill: 40°   Ceiling: Unl
Heat Index: 40°   Visibility: 10mi
Dew Point: 33°   Wind: 0mph
Humidity: 77%   Direction: NA
Pressure: 30.23"   Gusts: NA
Location:  33.25°N, 86.82°W
Report Text: KEET 290553Z AUTO 00000KT 10SM CLR 04/01 A3023 RMK AO2 SLP237 T00440006 10094 20044 401440000 55001
Loading
Personal Weather Stations






























Interactive Weather Map New forecast layout! Learn more

10-Day Weather Forecast

Advertisements
Track Severe Weather on mobile